Aviation Digital Data Service (ADDS)

Output produced by METARs form (2140 UTC 28 March 2017)
found at http://aviationweather.gov/adds/metars/
 
KPHF 282008Z 2820/2918 24011KT P6SM VCTS SCT030CB BKN100 
     TEMPO 2820/2822 VRB20G30KT 2SM TSRA OVC030CB 
     FM290100 29010KT P6SM VCSH BKN100 
     FM290400 33005KT P6SM BKN100 
     FM290900 36008KT P6SM BKN007 
     FM291400 36010G16KT P6SM SCT025